createdAt,value
2023-04-02T00:01:53.551Z,11.17
2023-04-02T00:07:31.766Z,11.13
2023-04-02T00:12:33.253Z,11.12
2023-04-02T00:17:34.704Z,11.08
2023-04-02T00:22:44.148Z,11.12
2023-04-02T00:27:46.005Z,11.03
2023-04-02T00:32:48.039Z,11.05
2023-04-02T00:37:50.262Z,10.92
2023-04-02T00:42:54.601Z,10.91
2023-04-02T00:47:58.812Z,11.06
2023-04-02T00:53:09.914Z,10.98
2023-04-02T00:58:25.447Z,10.94
2023-04-02T01:03:36.515Z,10.88
2023-04-02T01:09:09.567Z,10.94
2023-04-02T01:14:29.365Z,10.92
2023-04-02T01:19:52.851Z,10.98
2023-04-02T01:25:00.896Z,10.85
2023-04-02T01:30:05.173Z,10.87
2023-04-02T01:35:08.321Z,10.79
2023-04-02T01:40:21.678Z,10.84
2023-04-02T01:45:25.223Z,10.79
2023-04-02T01:50:37.275Z,10.68
2023-04-02T01:55:47.032Z,10.72
2023-04-02T02:00:57.021Z,10.73
2023-04-02T02:05:59.906Z,10.63
2023-04-02T02:11:02.603Z,10.60
2023-04-02T02:16:05.083Z,10.77
2023-04-02T02:21:10.329Z,10.75
2023-04-02T02:26:13.761Z,10.62
2023-04-02T02:31:22.796Z,10.56
2023-04-02T02:36:33.534Z,10.70
2023-04-02T02:41:45.594Z,10.74
2023-04-02T02:46:55.248Z,10.77
2023-04-02T02:52:08.830Z,10.78
2023-04-02T02:57:17.198Z,10.77
2023-04-02T03:02:19.179Z,10.64
2023-04-02T03:07:26.427Z,10.74
2023-04-02T03:12:40.216Z,10.76
2023-04-02T03:17:48.986Z,10.67
2023-04-02T03:23:01.214Z,10.69
2023-04-02T03:28:07.956Z,10.72
2023-04-02T03:33:15.355Z,10.75
2023-04-02T03:38:20.359Z,10.85
2023-04-02T03:43:31.385Z,10.90
2023-04-02T03:48:46.567Z,10.92
2023-04-02T03:53:49.540Z,10.98
2023-04-02T03:59:01.722Z,10.98
2023-04-02T04:04:10.391Z,11.00
2023-04-02T04:09:22.684Z,10.91
2023-04-02T04:14:34.750Z,11.05
2023-04-02T04:19:48.376Z,10.96
2023-04-02T04:24:50.089Z,10.94
2023-04-02T04:30:18.367Z,11.03
2023-04-02T04:35:28.905Z,11.04
2023-04-02T04:40:37.471Z,10.99
2023-04-02T04:45:45.987Z,11.11
2023-04-02T04:50:50.478Z,11.09
2023-04-02T04:56:18.567Z,11.07
2023-04-02T05:01:27.545Z,11.06
2023-04-02T05:06:40.574Z,11.05
2023-04-02T05:11:51.244Z,11.02
2023-04-02T05:17:09.162Z,10.98
2023-04-02T05:22:32.351Z,11.08
2023-04-02T05:27:42.418Z,11.09
2023-04-02T05:32:50.829Z,11.05
2023-04-02T05:37:53.311Z,11.08
2023-04-02T05:42:55.906Z,11.12
2023-04-02T05:48:02.597Z,11.23
2023-04-02T05:53:14.397Z,11.27
2023-04-02T05:58:35.326Z,11.20
2023-04-02T06:03:56.366Z,11.35
2023-04-02T06:09:03.800Z,11.22
2023-04-02T06:14:05.423Z,11.29
2023-04-02T06:19:15.640Z,11.35
2023-04-02T06:24:22.540Z,11.12
2023-04-02T06:29:38.457Z,10.83
2023-04-02T06:34:42.452Z,10.68
2023-04-02T06:39:44.055Z,10.50
2023-04-02T06:44:46.152Z,10.60
2023-04-02T06:50:03.940Z,10.52
2023-04-02T06:55:37.076Z,10.54
2023-04-02T07:00:43.409Z,10.60
2023-04-02T07:05:45.815Z,10.35
2023-04-02T07:10:47.817Z,10.52
2023-04-02T07:15:52.507Z,10.48
2023-04-02T07:20:56.190Z,10.56
2023-04-02T07:25:59.662Z,10.58
2023-04-02T07:31:02.186Z,10.46
2023-04-02T07:36:03.772Z,10.42
2023-04-02T07:41:07.049Z,10.35
2023-04-02T07:46:10.852Z,10.37
2023-04-02T07:51:21.698Z,10.16
2023-04-02T07:56:24.907Z,10.23
2023-04-02T08:01:27.668Z,9.89
2023-04-02T08:06:29.712Z,9.92
2023-04-02T08:11:31.979Z,9.93
2023-04-02T08:16:49.617Z,9.73
2023-04-02T08:21:51.997Z,9.81
2023-04-02T08:26:54.158Z,9.76
2023-04-02T08:31:56.130Z,9.84
2023-04-02T08:36:58.997Z,9.80
2023-04-02T08:42:21.344Z,10.00
2023-04-02T08:47:26.317Z,9.94
2023-04-02T08:52:32.505Z,9.97
2023-04-02T08:57:49.116Z,9.87
2023-04-02T09:03:00.587Z,9.97
2023-04-02T09:08:06.107Z,9.92
2023-04-02T09:13:17.263Z,10.21
2023-04-02T09:18:20.057Z,10.27
2023-04-02T09:23:24.363Z,10.29
2023-04-02T09:28:26.348Z,10.26
2023-04-02T09:33:50.399Z,10.38
2023-04-02T09:39:11.619Z,10.30
2023-04-02T09:44:17.887Z,10.51
2023-04-02T09:49:22.960Z,10.37
2023-04-02T09:54:27.100Z,10.39
2023-04-02T09:59:29.328Z,10.52
2023-04-02T10:04:48.433Z,10.56
2023-04-02T10:10:01.246Z,10.79
2023-04-02T10:15:04.494Z,10.85
2023-04-02T10:20:17.210Z,10.77
2023-04-02T10:25:24.776Z,10.69
2023-04-02T10:30:45.228Z,10.77
2023-04-02T10:36:05.626Z,10.57
2023-04-02T10:41:29.110Z,10.49
2023-04-02T10:46:43.986Z,10.38
2023-04-02T10:52:10.502Z,10.57
2023-04-02T10:57:16.953Z,10.53
2023-04-02T11:02:32.286Z,10.48
2023-04-02T11:07:45.810Z,10.57
2023-04-02T11:12:55.694Z,10.50
2023-04-02T11:17:57.346Z,10.47
2023-04-02T11:23:30.213Z,10.74
2023-04-02T11:28:32.773Z,10.58
2023-04-02T11:33:44.783Z,10.54
2023-04-02T11:38:52.377Z,10.59
2023-04-02T11:44:00.478Z,10.60
2023-04-02T11:49:37.857Z,10.63
2023-04-02T11:54:40.770Z,10.67
2023-04-02T12:00:18.610Z,10.58
2023-04-02T12:05:37.098Z,10.58
2023-04-02T12:10:54.281Z,10.63
2023-04-02T12:15:58.283Z,10.54
2023-04-02T12:20:59.879Z,10.38
2023-04-02T12:26:03.612Z,10.45
2023-04-02T12:31:08.084Z,10.63
2023-04-02T12:36:14.563Z,10.63
2023-04-02T12:41:24.987Z,10.51
2023-04-02T12:46:28.033Z,10.47
2023-04-02T12:51:29.675Z,10.38
2023-04-02T12:56:31.256Z,10.25
2023-04-02T13:01:33.994Z,10.13
2023-04-02T13:06:36.529Z,9.95
2023-04-02T13:11:40.545Z,9.87
2023-04-02T13:16:44.733Z,9.79
2023-04-02T13:21:46.312Z,9.77
2023-04-02T13:26:49.790Z,9.81
2023-04-02T13:31:53.534Z,9.78
2023-04-02T13:36:55.184Z,9.79
2023-04-02T13:42:02.350Z,9.72
2023-04-02T13:47:04.334Z,9.54
2023-04-02T13:52:13.862Z,9.73
2023-04-02T13:57:16.766Z,9.62
2023-04-02T14:02:24.271Z,9.48
2023-04-02T14:07:50.848Z,9.72
2023-04-02T14:13:23.101Z,9.64
2023-04-02T14:18:43.342Z,9.48
2023-04-02T14:23:54.847Z,9.51
2023-04-02T14:29:11.487Z,9.59
2023-04-02T14:34:40.924Z,9.41
2023-04-02T14:39:47.456Z,9.34
2023-04-02T14:45:10.653Z,9.12
2023-04-02T14:50:33.796Z,9.22
2023-04-02T14:55:49.622Z,9.28
2023-04-02T15:01:03.725Z,9.13
2023-04-02T15:06:10.424Z,9.16
2023-04-02T15:11:17.591Z,9.11
2023-04-02T15:16:25.799Z,9.15
2023-04-02T15:21:57.151Z,9.02
2023-04-02T15:27:33.125Z,8.98
2023-04-02T15:32:34.785Z,9.04
2023-04-02T15:37:42.025Z,9.05
2023-04-02T15:42:53.724Z,8.90
2023-04-02T15:48:15.252Z,9.11
2023-04-02T15:53:43.734Z,9.02
2023-04-02T15:59:08.495Z,9.05
2023-04-02T16:04:52.109Z,9.04
2023-04-02T16:10:10.863Z,8.87
2023-04-02T16:15:30.587Z,8.77
2023-04-02T16:20:37.086Z,8.72
2023-04-02T16:26:01.831Z,8.49
2023-04-02T16:31:37.544Z,8.69
2023-04-02T16:37:00.863Z,8.67
2023-04-02T16:42:16.993Z,8.57
2023-04-02T16:47:18.428Z,8.54
2023-04-02T16:52:33.071Z,8.30
2023-04-02T16:57:47.819Z,8.35
2023-04-02T17:03:06.385Z,8.41
2023-04-02T17:08:21.344Z,8.17
2023-04-02T17:13:42.164Z,8.27
2023-04-02T17:18:46.100Z,8.10
2023-04-02T17:24:14.570Z,8.10
2023-04-02T17:29:29.941Z,8.14
2023-04-02T17:34:31.945Z,8.10
2023-04-02T17:39:40.589Z,7.94
2023-04-02T17:44:52.710Z,8.00
2023-04-02T17:50:12.133Z,7.87
2023-04-02T17:55:56.050Z,7.86
2023-04-02T18:01:06.028Z,7.93
2023-04-02T18:06:19.962Z,7.94
2023-04-02T18:11:37.850Z,7.86
2023-04-02T18:16:49.767Z,7.91
2023-04-02T18:21:57.948Z,7.78
2023-04-02T18:27:02.341Z,7.84
2023-04-02T18:32:22.421Z,7.85
2023-04-02T18:37:31.348Z,7.79
2023-04-02T18:42:47.245Z,7.82
2023-04-02T18:48:19.798Z,7.73
2023-04-02T18:53:26.823Z,7.79
2023-04-02T18:58:46.237Z,7.78
2023-04-02T19:04:02.217Z,7.70
2023-04-02T19:09:27.269Z,7.64
2023-04-02T19:14:29.939Z,7.74
2023-04-02T19:19:41.566Z,7.72
2023-04-02T19:25:04.250Z,7.69
2023-04-02T19:30:51.667Z,7.62
2023-04-02T19:36:06.714Z,7.51
2023-04-02T19:41:08.098Z,7.65
2023-04-02T19:46:10.107Z,7.57
2023-04-02T19:51:11.775Z,7.56
2023-04-02T19:56:13.287Z,7.50
2023-04-02T20:01:15.346Z,7.39
2023-04-02T20:06:17.079Z,7.61
2023-04-02T20:11:18.553Z,7.61
2023-04-02T20:16:21.587Z,7.61
2023-04-02T20:21:23.223Z,7.44
2023-04-02T20:26:24.763Z,7.42
2023-04-02T20:31:26.599Z,7.29
2023-04-02T20:36:28.287Z,7.22
2023-04-02T20:41:30.384Z,7.14
2023-04-02T20:46:31.831Z,7.17
2023-04-02T20:51:34.559Z,7.19
2023-04-02T20:56:36.037Z,7.25
2023-04-02T21:01:40.101Z,7.17
2023-04-02T21:06:42.040Z,7.17
2023-04-02T21:11:44.237Z,7.26
2023-04-02T21:16:46.107Z,7.34
2023-04-02T21:21:47.638Z,7.39
2023-04-02T21:26:50.494Z,7.35
2023-04-02T21:31:52.542Z,7.39
2023-04-02T21:36:54.307Z,7.35
2023-04-02T21:41:55.956Z,7.40
2023-04-02T21:46:57.541Z,7.37
2023-04-02T21:51:59.456Z,7.38
2023-04-02T21:57:00.970Z,7.37
2023-04-02T22:02:03.323Z,7.28
2023-04-02T22:07:04.743Z,7.36
2023-04-02T22:12:08.027Z,7.33
2023-04-02T22:17:09.789Z,7.21
2023-04-02T22:22:11.292Z,7.33
2023-04-02T22:27:12.802Z,7.25
2023-04-02T22:32:14.177Z,7.23
2023-04-02T22:37:15.606Z,7.29
2023-04-02T22:42:17.570Z,7.16
2023-04-02T22:47:19.646Z,7.15
2023-04-02T22:52:21.040Z,7.19
2023-04-02T22:57:24.766Z,7.24
2023-04-02T23:02:27.148Z,7.07
2023-04-02T23:07:28.744Z,7.19
2023-04-02T23:12:30.956Z,6.99
2023-04-02T23:17:32.624Z,7.07
2023-04-02T23:22:34.645Z,7.18
2023-04-02T23:27:36.686Z,7.17
2023-04-02T23:32:38.124Z,7.08
2023-04-02T23:37:39.603Z,7.18
2023-04-02T23:42:41.062Z,7.15
2023-04-02T23:47:43.244Z,7.17
2023-04-02T23:52:44.778Z,7.23
2023-04-02T23:57:46.228Z,7.23
